sensor_id;sensor_type;location;lat;lon;timestamp;temperature;humidity
24035;DHT22;12242;50.952;4.678;2024-02-23T00:02:26;6.20;99.90
24035;DHT22;12242;50.952;4.678;2024-02-23T00:04:56;6.30;99.90
24035;DHT22;12242;50.952;4.678;2024-02-23T00:07:26;6.20;99.90
24035;DHT22;12242;50.952;4.678;2024-02-23T00:09:54;6.30;99.90
24035;DHT22;12242;50.952;4.678;2024-02-23T00:12:23;6.40;99.90
24035;DHT22;12242;50.952;4.678;2024-02-23T00:14:51;6.40;99.90
24035;DHT22;12242;50.952;4.678;2024-02-23T00:17:19;6.40;99.90
24035;DHT22;12242;50.952;4.678;2024-02-23T00:19:46;6.30;99.90
24035;DHT22;12242;50.952;4.678;2024-02-23T00:22:15;6.20;99.90
24035;DHT22;12242;50.952;4.678;2024-02-23T00:24:42;6.10;99.90
24035;DHT22;12242;50.952;4.678;2024-02-23T00:27:11;6.00;99.90
24035;DHT22;12242;50.952;4.678;2024-02-23T00:29:39;6.00;99.90
24035;DHT22;12242;50.952;4.678;2024-02-23T00:32:12;6.00;99.90
24035;DHT22;12242;50.952;4.678;2024-02-23T00:34:40;6.00;99.90
24035;DHT22;12242;50.952;4.678;2024-02-23T00:37:16;6.10;99.90
24035;DHT22;12242;50.952;4.678;2024-02-23T00:39:47;6.00;99.90
24035;DHT22;12242;50.952;4.678;2024-02-23T00:42:15;5.90;99.90
24035;DHT22;12242;50.952;4.678;2024-02-23T00:44:43;5.80;99.90
24035;DHT22;12242;50.952;4.678;2024-02-23T00:47:12;5.70;99.90
24035;DHT22;12242;50.952;4.678;2024-02-23T00:49:40;5.60;99.90
24035;DHT22;12242;50.952;4.678;2024-02-23T00:52:12;5.70;99.90
24035;DHT22;12242;50.952;4.678;2024-02-23T00:54:40;5.70;99.90
24035;DHT22;12242;50.952;4.678;2024-02-23T00:57:07;5.70;99.90
24035;DHT22;12242;50.952;4.678;2024-02-23T00:59:36;5.70;99.90
24035;DHT22;12242;50.952;4.678;2024-02-23T01:02:05;5.70;99.90
24035;DHT22;12242;50.952;4.678;2024-02-23T01:04:35;5.80;99.90
24035;DHT22;12242;50.952;4.678;2024-02-23T01:07:03;5.90;99.90
24035;DHT22;12242;50.952;4.678;2024-02-23T01:09:31;5.90;99.90
24035;DHT22;12242;50.952;4.678;2024-02-23T01:11:59;5.90;99.90
24035;DHT22;12242;50.952;4.678;2024-02-23T01:14:27;5.80;99.90
24035;DHT22;12242;50.952;4.678;2024-02-23T01:16:56;5.70;99.90
24035;DHT22;12242;50.952;4.678;2024-02-23T01:19:24;5.70;99.90
24035;DHT22;12242;50.952;4.678;2024-02-23T01:21:51;5.70;99.90
24035;DHT22;12242;50.952;4.678;2024-02-23T01:24:29;5.70;99.90
24035;DHT22;12242;50.952;4.678;2024-02-23T01:26:57;5.70;99.90
24035;DHT22;12242;50.952;4.678;2024-02-23T01:29:26;5.70;99.90
24035;DHT22;12242;50.952;4.678;2024-02-23T01:31:57;5.60;99.90
24035;DHT22;12242;50.952;4.678;2024-02-23T01:34:25;5.70;99.90
24035;DHT22;12242;50.952;4.678;2024-02-23T01:36:55;5.60;99.90
24035;DHT22;12242;50.952;4.678;2024-02-23T01:39:22;5.50;99.90
24035;DHT22;12242;50.952;4.678;2024-02-23T01:41:50;5.60;99.90
24035;DHT22;12242;50.952;4.678;2024-02-23T01:44:19;5.60;99.90
24035;DHT22;12242;50.952;4.678;2024-02-23T01:46:49;5.50;99.90
24035;DHT22;12242;50.952;4.678;2024-02-23T01:49:20;5.50;99.90
24035;DHT22;12242;50.952;4.678;2024-02-23T01:51:51;5.60;99.90
24035;DHT22;12242;50.952;4.678;2024-02-23T01:54:19;5.50;99.90
24035;DHT22;12242;50.952;4.678;2024-02-23T01:56:48;5.50;99.90
24035;DHT22;12242;50.952;4.678;2024-02-23T01:59:18;5.40;99.90
24035;DHT22;12242;50.952;4.678;2024-02-23T02:01:46;5.40;99.90
24035;DHT22;12242;50.952;4.678;2024-02-23T02:04:16;5.40;99.90
24035;DHT22;12242;50.952;4.678;2024-02-23T02:06:46;5.50;99.90
24035;DHT22;12242;50.952;4.678;2024-02-23T02:09:15;5.40;99.90
24035;DHT22;12242;50.952;4.678;2024-02-23T02:11:46;5.50;99.90
24035;DHT22;12242;50.952;4.678;2024-02-23T02:14:18;5.60;99.90
24035;DHT22;12242;50.952;4.678;2024-02-23T02:16:47;5.60;99.90
24035;DHT22;12242;50.952;4.678;2024-02-23T02:19:15;5.70;99.90
24035;DHT22;12242;50.952;4.678;2024-02-23T02:21:43;5.80;99.90
24035;DHT22;12242;50.952;4.678;2024-02-23T02:24:13;5.90;99.90
24035;DHT22;12242;50.952;4.678;2024-02-23T02:26:41;6.00;99.90
24035;DHT22;12242;50.952;4.678;2024-02-23T02:29:13;6.00;99.90
24035;DHT22;12242;50.952;4.678;2024-02-23T02:31:43;5.90;99.90
24035;DHT22;12242;50.952;4.678;2024-02-23T02:34:14;5.80;99.90
24035;DHT22;12242;50.952;4.678;2024-02-23T02:36:42;5.80;99.90
24035;DHT22;12242;50.952;4.678;2024-02-23T02:39:12;5.80;99.90
24035;DHT22;12242;50.952;4.678;2024-02-23T02:41:40;5.90;99.90
24035;DHT22;12242;50.952;4.678;2024-02-23T02:44:12;6.00;99.90
24035;DHT22;12242;50.952;4.678;2024-02-23T02:46:45;6.00;99.90
24035;DHT22;12242;50.952;4.678;2024-02-23T02:49:13;6.00;99.90
24035;DHT22;12242;50.952;4.678;2024-02-23T02:51:41;6.00;99.90
24035;DHT22;12242;50.952;4.678;2024-02-23T02:54:09;6.10;99.90
24035;DHT22;12242;50.952;4.678;2024-02-23T02:56:45;6.20;99.90
24035;DHT22;12242;50.952;4.678;2024-02-23T02:59:16;6.20;99.90
24035;DHT22;12242;50.952;4.678;2024-02-23T03:01:45;6.30;99.90
24035;DHT22;12242;50.952;4.678;2024-02-23T03:04:16;6.30;99.90
24035;DHT22;12242;50.952;4.678;2024-02-23T03:06:44;6.20;99.90
24035;DHT22;12242;50.952;4.678;2024-02-23T03:09:12;6.10;99.90
24035;DHT22;12242;50.952;4.678;2024-02-23T03:11:41;6.30;99.90
24035;DHT22;12242;50.952;4.678;2024-02-23T03:14:11;6.40;99.90
24035;DHT22;12242;50.952;4.678;2024-02-23T03:16:42;6.40;99.90
24035;DHT22;12242;50.952;4.678;2024-02-23T03:19:12;6.40;99.90
24035;DHT22;12242;50.952;4.678;2024-02-23T03:21:40;6.40;99.90
24035;DHT22;12242;50.952;4.678;2024-02-23T03:24:07;6.30;99.90
24035;DHT22;12242;50.952;4.678;2024-02-23T03:26:35;6.30;99.90
24035;DHT22;12242;50.952;4.678;2024-02-23T03:29:03;6.20;99.90
24035;DHT22;12242;50.952;4.678;2024-02-23T03:31:40;6.10;99.90
24035;DHT22;12242;50.952;4.678;2024-02-23T03:34:08;6.10;99.90
24035;DHT22;12242;50.952;4.678;2024-02-23T03:36:40;6.20;99.90
24035;DHT22;12242;50.952;4.678;2024-02-23T03:39:11;6.30;99.90
24035;DHT22;12242;50.952;4.678;2024-02-23T03:41:41;6.50;99.90
24035;DHT22;12242;50.952;4.678;2024-02-23T03:44:12;6.50;99.90
24035;DHT22;12242;50.952;4.678;2024-02-23T03:46:40;6.50;99.90
24035;DHT22;12242;50.952;4.678;2024-02-23T03:49:11;6.50;99.90
24035;DHT22;12242;50.952;4.678;2024-02-23T03:51:39;6.30;99.90
24035;DHT22;12242;50.952;4.678;2024-02-23T03:54:08;6.20;99.90
24035;DHT22;12242;50.952;4.678;2024-02-23T03:56:40;6.10;99.90
24035;DHT22;12242;50.952;4.678;2024-02-23T03:59:09;6.10;99.90
24035;DHT22;12242;50.952;4.678;2024-02-23T04:01:38;6.20;99.90
24035;DHT22;12242;50.952;4.678;2024-02-23T04:04:07;6.30;99.90
24035;DHT22;12242;50.952;4.678;2024-02-23T04:06:40;6.30;99.90
24035;DHT22;12242;50.952;4.678;2024-02-23T04:09:10;6.30;99.90
24035;DHT22;12242;50.952;4.678;2024-02-23T04:11:40;6.30;99.90
24035;DHT22;12242;50.952;4.678;2024-02-23T04:14:08;6.50;99.90
24035;DHT22;12242;50.952;4.678;2024-02-23T04:16:38;6.70;99.90
24035;DHT22;12242;50.952;4.678;2024-02-23T04:19:05;6.70;99.90
24035;DHT22;12242;50.952;4.678;2024-02-23T04:21:35;6.60;99.90
24035;DHT22;12242;50.952;4.678;2024-02-23T04:24:02;6.60;99.90
24035;DHT22;12242;50.952;4.678;2024-02-23T04:26:32;6.70;99.90
24035;DHT22;12242;50.952;4.678;2024-02-23T04:29:00;6.80;99.90
24035;DHT22;12242;50.952;4.678;2024-02-23T04:31:29;6.90;99.90
24035;DHT22;12242;50.952;4.678;2024-02-23T04:34:00;6.90;99.90
24035;DHT22;12242;50.952;4.678;2024-02-23T04:36:30;7.00;99.90
24035;DHT22;12242;50.952;4.678;2024-02-23T04:38:58;6.90;99.90
24035;DHT22;12242;50.952;4.678;2024-02-23T04:41:28;6.80;99.90
24035;DHT22;12242;50.952;4.678;2024-02-23T04:43:56;6.80;99.90
24035;DHT22;12242;50.952;4.678;2024-02-23T04:46:31;6.80;99.90
24035;DHT22;12242;50.952;4.678;2024-02-23T04:49:04;6.70;99.90
24035;DHT22;12242;50.952;4.678;2024-02-23T04:51:32;6.60;99.90
24035;DHT22;12242;50.952;4.678;2024-02-23T04:54:00;6.60;99.90
24035;DHT22;12242;50.952;4.678;2024-02-23T04:56:27;6.60;99.90
24035;DHT22;12242;50.952;4.678;2024-02-23T04:58:55;6.50;99.90
24035;DHT22;12242;50.952;4.678;2024-02-23T05:01:26;6.50;99.90
24035;DHT22;12242;50.952;4.678;2024-02-23T05:03:56;6.40;99.90
24035;DHT22;12242;50.952;4.678;2024-02-23T05:06:24;6.40;99.90
24035;DHT22;12242;50.952;4.678;2024-02-23T05:08:51;6.50;99.90
24035;DHT22;12242;50.952;4.678;2024-02-23T05:11:22;6.60;99.90
24035;DHT22;12242;50.952;4.678;2024-02-23T05:13:53;6.60;99.90
24035;DHT22;12242;50.952;4.678;2024-02-23T05:16:20;6.70;99.90
24035;DHT22;12242;50.952;4.678;2024-02-23T05:18:49;6.60;99.90
24035;DHT22;12242;50.952;4.678;2024-02-23T05:21:19;6.80;99.90
24035;DHT22;12242;50.952;4.678;2024-02-23T05:23:47;6.80;99.90
24035;DHT22;12242;50.952;4.678;2024-02-23T05:26:14;6.70;99.90
24035;DHT22;12242;50.952;4.678;2024-02-23T05:28:42;6.80;99.90
24035;DHT22;12242;50.952;4.678;2024-02-23T05:31:10;6.70;99.90
24035;DHT22;12242;50.952;4.678;2024-02-23T05:33:38;6.80;99.90
24035;DHT22;12242;50.952;4.678;2024-02-23T05:36:07;6.90;99.90
24035;DHT22;12242;50.952;4.678;2024-02-23T05:38:39;6.80;99.90
24035;DHT22;12242;50.952;4.678;2024-02-23T05:41:15;6.70;99.90
24035;DHT22;12242;50.952;4.678;2024-02-23T05:43:44;6.80;99.90
24035;DHT22;12242;50.952;4.678;2024-02-23T05:46:12;6.70;99.90
24035;DHT22;12242;50.952;4.678;2024-02-23T05:48:40;6.70;99.90
24035;DHT22;12242;50.952;4.678;2024-02-23T05:51:07;6.70;99.90
24035;DHT22;12242;50.952;4.678;2024-02-23T05:53:39;6.60;99.90
24035;DHT22;12242;50.952;4.678;2024-02-23T05:56:07;6.60;99.90
24035;DHT22;12242;50.952;4.678;2024-02-23T05:58:35;6.60;99.90
24035;DHT22;12242;50.952;4.678;2024-02-23T06:01:06;6.70;99.90
24035;DHT22;12242;50.952;4.678;2024-02-23T06:03:37;6.80;99.90
24035;DHT22;12242;50.952;4.678;2024-02-23T06:06:07;6.80;99.90
24035;DHT22;12242;50.952;4.678;2024-02-23T06:08:38;6.80;99.90
24035;DHT22;12242;50.952;4.678;2024-02-23T06:11:10;6.80;99.90
24035;DHT22;12242;50.952;4.678;2024-02-23T06:13:39;6.80;99.90
24035;DHT22;12242;50.952;4.678;2024-02-23T06:16:12;6.80;99.90
24035;DHT22;12242;50.952;4.678;2024-02-23T06:18:40;6.90;99.90
24035;DHT22;12242;50.952;4.678;2024-02-23T06:21:17;6.80;99.90
24035;DHT22;12242;50.952;4.678;2024-02-23T06:23:45;6.80;99.90
24035;DHT22;12242;50.952;4.678;2024-02-23T06:26:14;6.80;99.90
24035;DHT22;12242;50.952;4.678;2024-02-23T06:28:43;6.80;99.90
24035;DHT22;12242;50.952;4.678;2024-02-23T06:31:21;6.80;99.90
24035;DHT22;12242;50.952;4.678;2024-02-23T06:34:18;6.70;99.90
24035;DHT22;12242;50.952;4.678;2024-02-23T06:36:46;6.70;99.90
24035;DHT22;12242;50.952;4.678;2024-02-23T06:39:17;6.70;99.90
24035;DHT22;12242;50.952;4.678;2024-02-23T06:41:50;6.70;99.90
24035;DHT22;12242;50.952;4.678;2024-02-23T06:44:20;6.70;99.90
24035;DHT22;12242;50.952;4.678;2024-02-23T06:46:50;6.80;99.90
24035;DHT22;12242;50.952;4.678;2024-02-23T06:49:19;6.70;99.90
24035;DHT22;12242;50.952;4.678;2024-02-23T06:51:48;6.90;99.90
24035;DHT22;12242;50.952;4.678;2024-02-23T06:54:28;6.80;99.90
24035;DHT22;12242;50.952;4.678;2024-02-23T06:56:57;6.90;99.90
24035;DHT22;12242;50.952;4.678;2024-02-23T06:59:30;6.80;99.90
24035;DHT22;12242;50.952;4.678;2024-02-23T07:02:04;6.90;99.90
24035;DHT22;12242;50.952;4.678;2024-02-23T07:04:32;6.80;99.90
24035;DHT22;12242;50.952;4.678;2024-02-23T07:07:05;6.90;99.90
24035;DHT22;12242;50.952;4.678;2024-02-23T07:09:54;6.90;99.90
24035;DHT22;12242;50.952;4.678;2024-02-23T07:12:23;7.10;99.90
24035;DHT22;12242;50.952;4.678;2024-02-23T07:14:59;7.20;99.90
24035;DHT22;12242;50.952;4.678;2024-02-23T07:17:33;7.30;99.90
24035;DHT22;12242;50.952;4.678;2024-02-23T07:20:09;7.40;99.90
24035;DHT22;12242;50.952;4.678;2024-02-23T07:22:38;7.30;99.90
24035;DHT22;12242;50.952;4.678;2024-02-23T07:25:36;7.20;99.90
24035;DHT22;12242;50.952;4.678;2024-02-23T07:28:09;7.20;99.90
24035;DHT22;12242;50.952;4.678;2024-02-23T07:30:46;7.10;99.90
24035;DHT22;12242;50.952;4.678;2024-02-23T07:33:28;7.20;99.90
24035;DHT22;12242;50.952;4.678;2024-02-23T07:36:03;7.20;99.90
24035;DHT22;12242;50.952;4.678;2024-02-23T07:38:38;7.20;99.90
24035;DHT22;12242;50.952;4.678;2024-02-23T07:41:18;7.30;99.90
24035;DHT22;12242;50.952;4.678;2024-02-23T07:44:02;7.30;99.90
24035;DHT22;12242;50.952;4.678;2024-02-23T07:46:37;7.20;99.90
24035;DHT22;12242;50.952;4.678;2024-02-23T07:49:14;7.30;99.90
24035;DHT22;12242;50.952;4.678;2024-02-23T07:52:00;7.30;99.90
24035;DHT22;12242;50.952;4.678;2024-02-23T07:54:44;7.50;99.90
24035;DHT22;12242;50.952;4.678;2024-02-23T07:57:21;7.60;99.90
24035;DHT22;12242;50.952;4.678;2024-02-23T08:00:22;7.70;99.90
24035;DHT22;12242;50.952;4.678;2024-02-23T08:03:10;7.70;99.90
24035;DHT22;12242;50.952;4.678;2024-02-23T08:05:55;7.90;99.90
24035;DHT22;12242;50.952;4.678;2024-02-23T08:08:47;8.10;99.90
24035;DHT22;12242;50.952;4.678;2024-02-23T08:11:25;8.20;99.90
24035;DHT22;12242;50.952;4.678;2024-02-23T08:14:09;8.20;99.90
24035;DHT22;12242;50.952;4.678;2024-02-23T08:16:46;8.20;99.90
24035;DHT22;12242;50.952;4.678;2024-02-23T08:19:53;8.40;99.90
24035;DHT22;12242;50.952;4.678;2024-02-23T08:22:44;8.30;99.90
24035;DHT22;12242;50.952;4.678;2024-02-23T08:25:17;8.40;99.90
24035;DHT22;12242;50.952;4.678;2024-02-23T08:28:05;8.40;99.90
24035;DHT22;12242;50.952;4.678;2024-02-23T08:30:37;8.40;99.90
24035;DHT22;12242;50.952;4.678;2024-02-23T08:33:11;8.40;99.90
24035;DHT22;12242;50.952;4.678;2024-02-23T08:35:49;8.20;99.90
24035;DHT22;12242;50.952;4.678;2024-02-23T08:38:25;7.90;99.90
24035;DHT22;12242;50.952;4.678;2024-02-23T08:41:05;7.90;99.90
24035;DHT22;12242;50.952;4.678;2024-02-23T08:43:36;7.80;99.90
24035;DHT22;12242;50.952;4.678;2024-02-23T08:46:10;7.90;99.90
24035;DHT22;12242;50.952;4.678;2024-02-23T08:48:42;7.80;99.90
24035;DHT22;12242;50.952;4.678;2024-02-23T08:51:17;7.80;99.90
24035;DHT22;12242;50.952;4.678;2024-02-23T08:53:47;7.70;99.90
24035;DHT22;12242;50.952;4.678;2024-02-23T08:56:18;7.50;99.90
24035;DHT22;12242;50.952;4.678;2024-02-23T08:58:53;7.60;99.90
24035;DHT22;12242;50.952;4.678;2024-02-23T09:01:26;7.80;99.90
24035;DHT22;12242;50.952;4.678;2024-02-23T09:03:54;8.00;99.90
24035;DHT22;12242;50.952;4.678;2024-02-23T09:06:25;8.00;99.90
24035;DHT22;12242;50.952;4.678;2024-02-23T09:08:52;8.10;99.90
24035;DHT22;12242;50.952;4.678;2024-02-23T09:11:23;8.00;99.90
24035;DHT22;12242;50.952;4.678;2024-02-23T09:13:53;7.90;99.90
24035;DHT22;12242;50.952;4.678;2024-02-23T09:16:20;7.70;99.90
24035;DHT22;12242;50.952;4.678;2024-02-23T09:18:52;7.60;99.90
24035;DHT22;12242;50.952;4.678;2024-02-23T09:21:21;7.50;99.90
24035;DHT22;12242;50.952;4.678;2024-02-23T09:23:49;7.50;99.90
24035;DHT22;12242;50.952;4.678;2024-02-23T09:26:18;7.50;99.90
24035;DHT22;12242;50.952;4.678;2024-02-23T09:28:46;7.60;99.90
24035;DHT22;12242;50.952;4.678;2024-02-23T09:31:14;7.80;99.90
24035;DHT22;12242;50.952;4.678;2024-02-23T09:33:44;7.80;99.90
24035;DHT22;12242;50.952;4.678;2024-02-23T09:36:13;7.70;99.90
24035;DHT22;12242;50.952;4.678;2024-02-23T09:38:43;7.80;99.90
24035;DHT22;12242;50.952;4.678;2024-02-23T09:41:24;7.90;99.90
24035;DHT22;12242;50.952;4.678;2024-02-23T09:43:54;8.00;99.90
24035;DHT22;12242;50.952;4.678;2024-02-23T09:46:23;8.00;99.90
24035;DHT22;12242;50.952;4.678;2024-02-23T09:48:51;8.30;99.90
24035;DHT22;12242;50.952;4.678;2024-02-23T09:51:19;8.70;99.90
24035;DHT22;12242;50.952;4.678;2024-02-23T09:53:51;9.00;99.90
24035;DHT22;12242;50.952;4.678;2024-02-23T09:56:21;9.90;99.90
24035;DHT22;12242;50.952;4.678;2024-02-23T09:58:52;11.00;99.90
24035;DHT22;12242;50.952;4.678;2024-02-23T10:01:28;11.00;99.90
24035;DHT22;12242;50.952;4.678;2024-02-23T10:04:01;11.10;99.90
24035;DHT22;12242;50.952;4.678;2024-02-23T10:06:32;11.80;99.90
24035;DHT22;12242;50.952;4.678;2024-02-23T10:09:05;11.90;99.90
24035;DHT22;12242;50.952;4.678;2024-02-23T10:11:35;11.80;99.90
24035;DHT22;12242;50.952;4.678;2024-02-23T10:14:03;12.00;99.90
24035;DHT22;12242;50.952;4.678;2024-02-23T10:16:34;12.20;99.90
24035;DHT22;12242;50.952;4.678;2024-02-23T10:19:06;12.10;99.90
24035;DHT22;12242;50.952;4.678;2024-02-23T10:21:36;11.80;99.90
24035;DHT22;12242;50.952;4.678;2024-02-23T10:24:05;11.00;99.90
24035;DHT22;12242;50.952;4.678;2024-02-23T10:26:34;10.60;99.90
24035;DHT22;12242;50.952;4.678;2024-02-23T10:29:04;10.70;99.90
24035;DHT22;12242;50.952;4.678;2024-02-23T10:31:35;10.70;99.90
24035;DHT22;12242;50.952;4.678;2024-02-23T10:34:08;11.10;99.90
24035;DHT22;12242;50.952;4.678;2024-02-23T10:36:42;11.30;99.90
24035;DHT22;12242;50.952;4.678;2024-02-23T10:39:10;11.80;99.90
24035;DHT22;12242;50.952;4.678;2024-02-23T10:41:46;12.40;99.90
24035;DHT22;12242;50.952;4.678;2024-02-23T10:44:18;12.60;99.90
24035;DHT22;12242;50.952;4.678;2024-02-23T10:46:47;12.80;99.90
24035;DHT22;12242;50.952;4.678;2024-02-23T10:49:23;12.70;99.90
24035;DHT22;12242;50.952;4.678;2024-02-23T10:51:57;12.20;99.90
24035;DHT22;12242;50.952;4.678;2024-02-23T10:54:33;12.10;99.90
24035;DHT22;12242;50.952;4.678;2024-02-23T10:57:04;12.20;99.90
24035;DHT22;12242;50.952;4.678;2024-02-23T10:59:33;12.80;99.90
24035;DHT22;12242;50.952;4.678;2024-02-23T11:02:06;13.90;99.90
24035;DHT22;12242;50.952;4.678;2024-02-23T11:04:37;15.10;99.90
24035;DHT22;12242;50.952;4.678;2024-02-23T11:07:13;15.70;99.90
24035;DHT22;12242;50.952;4.678;2024-02-23T11:09:41;15.00;99.90
24035;DHT22;12242;50.952;4.678;2024-02-23T11:12:10;14.20;99.90
24035;DHT22;12242;50.952;4.678;2024-02-23T11:14:42;13.50;99.90
24035;DHT22;12242;50.952;4.678;2024-02-23T11:17:18;13.10;99.90
24035;DHT22;12242;50.952;4.678;2024-02-23T11:19:49;12.80;99.90
24035;DHT22;12242;50.952;4.678;2024-02-23T11:22:27;12.50;99.90
24035;DHT22;12242;50.952;4.678;2024-02-23T11:25:06;12.50;99.90
24035;DHT22;12242;50.952;4.678;2024-02-23T11:27:37;12.40;99.90
24035;DHT22;12242;50.952;4.678;2024-02-23T11:30:07;12.30;99.90
24035;DHT22;12242;50.952;4.678;2024-02-23T11:32:46;12.00;99.90
24035;DHT22;12242;50.952;4.678;2024-02-23T11:35:18;11.80;99.90
24035;DHT22;12242;50.952;4.678;2024-02-23T11:37:53;12.10;99.90
24035;DHT22;12242;50.952;4.678;2024-02-23T11:40:32;12.00;99.90
24035;DHT22;12242;50.952;4.678;2024-02-23T11:43:01;11.70;99.90
24035;DHT22;12242;50.952;4.678;2024-02-23T11:45:31;11.10;99.90
24035;DHT22;12242;50.952;4.678;2024-02-23T11:47:59;10.80;99.90
24035;DHT22;12242;50.952;4.678;2024-02-23T11:50:29;10.70;99.90
24035;DHT22;12242;50.952;4.678;2024-02-23T11:52:57;10.70;99.90
24035;DHT22;12242;50.952;4.678;2024-02-23T11:55:25;10.70;99.90
24035;DHT22;12242;50.952;4.678;2024-02-23T11:57:55;11.00;99.90
24035;DHT22;12242;50.952;4.678;2024-02-23T12:00:34;11.70;99.90
24035;DHT22;12242;50.952;4.678;2024-02-23T12:03:05;12.10;99.90
24035;DHT22;12242;50.952;4.678;2024-02-23T12:05:35;12.30;99.90
24035;DHT22;12242;50.952;4.678;2024-02-23T12:08:03;12.50;99.90
24035;DHT22;12242;50.952;4.678;2024-02-23T12:10:31;12.50;99.90
24035;DHT22;12242;50.952;4.678;2024-02-23T12:12:59;12.60;99.90
24035;DHT22;12242;50.952;4.678;2024-02-23T12:15:30;12.30;99.90
24035;DHT22;12242;50.952;4.678;2024-02-23T12:17:58;12.00;99.90
24035;DHT22;12242;50.952;4.678;2024-02-23T12:20:27;11.70;99.90
24035;DHT22;12242;50.952;4.678;2024-02-23T12:22:55;11.50;99.90
24035;DHT22;12242;50.952;4.678;2024-02-23T12:25:24;11.20;99.90
24035;DHT22;12242;50.952;4.678;2024-02-23T12:27:57;11.50;99.90
24035;DHT22;12242;50.952;4.678;2024-02-23T12:30:30;11.70;99.90
24035;DHT22;12242;50.952;4.678;2024-02-23T12:33:05;12.30;99.90
24035;DHT22;12242;50.952;4.678;2024-02-23T12:35:34;12.60;99.90
24035;DHT22;12242;50.952;4.678;2024-02-23T12:38:04;12.70;99.90
24035;DHT22;12242;50.952;4.678;2024-02-23T12:40:32;12.90;99.90
24035;DHT22;12242;50.952;4.678;2024-02-23T12:43:02;13.20;99.90
24035;DHT22;12242;50.952;4.678;2024-02-23T12:45:29;13.30;99.90
24035;DHT22;12242;50.952;4.678;2024-02-23T12:47:57;13.00;99.90
24035;DHT22;12242;50.952;4.678;2024-02-23T12:50:30;13.00;99.90
24035;DHT22;12242;50.952;4.678;2024-02-23T12:53:00;12.70;99.90
24035;DHT22;12242;50.952;4.678;2024-02-23T12:55:28;12.60;99.90
24035;DHT22;12242;50.952;4.678;2024-02-23T12:58:28;12.70;99.90
24035;DHT22;12242;50.952;4.678;2024-02-23T13:01:07;12.70;99.90
24035;DHT22;12242;50.952;4.678;2024-02-23T13:03:36;12.80;99.90
24035;DHT22;12242;50.952;4.678;2024-02-23T13:06:33;12.70;99.90
24035;DHT22;12242;50.952;4.678;2024-02-23T13:09:19;12.30;99.90
24035;DHT22;12242;50.952;4.678;2024-02-23T13:12:00;12.40;99.90
24035;DHT22;12242;50.952;4.678;2024-02-23T13:14:58;12.40;99.90
24035;DHT22;12242;50.952;4.678;2024-02-23T13:17:29;12.20;99.90
24035;DHT22;12242;50.952;4.678;2024-02-23T13:19:59;12.10;99.90
24035;DHT22;12242;50.952;4.678;2024-02-23T13:22:39;12.20;99.90
24035;DHT22;12242;50.952;4.678;2024-02-23T13:25:08;12.10;99.90
24035;DHT22;12242;50.952;4.678;2024-02-23T13:27:41;12.00;99.90
24035;DHT22;12242;50.952;4.678;2024-02-23T13:30:16;12.20;99.90
24035;DHT22;12242;50.952;4.678;2024-02-23T13:32:51;12.20;99.90
24035;DHT22;12242;50.952;4.678;2024-02-23T13:35:23;12.10;99.90
24035;DHT22;12242;50.952;4.678;2024-02-23T13:37:51;12.10;99.90
24035;DHT22;12242;50.952;4.678;2024-02-23T13:40:25;12.10;99.90
24035;DHT22;12242;50.952;4.678;2024-02-23T13:42:56;12.20;99.90
24035;DHT22;12242;50.952;4.678;2024-02-23T13:45:30;12.10;99.90
24035;DHT22;12242;50.952;4.678;2024-02-23T13:48:27;12.20;99.90
24035;DHT22;12242;50.952;4.678;2024-02-23T13:51:03;12.30;99.90
24035;DHT22;12242;50.952;4.678;2024-02-23T13:53:37;12.60;99.90
24035;DHT22;12242;50.952;4.678;2024-02-23T13:56:09;12.50;99.90
24035;DHT22;12242;50.952;4.678;2024-02-23T13:58:44;12.10;99.90
24035;DHT22;12242;50.952;4.678;2024-02-23T14:01:16;12.00;99.90
24035;DHT22;12242;50.952;4.678;2024-02-23T14:03:54;12.00;99.90
24035;DHT22;12242;50.952;4.678;2024-02-23T14:06:24;12.00;99.90
24035;DHT22;12242;50.952;4.678;2024-02-23T14:08:57;11.80;99.90
24035;DHT22;12242;50.952;4.678;2024-02-23T14:11:34;11.80;99.90
24035;DHT22;12242;50.952;4.678;2024-02-23T14:14:11;11.60;99.90
24035;DHT22;12242;50.952;4.678;2024-02-23T14:16:51;11.40;99.90
24035;DHT22;12242;50.952;4.678;2024-02-23T14:19:32;11.40;99.90
24035;DHT22;12242;50.952;4.678;2024-02-23T14:22:07;11.50;99.90
24035;DHT22;12242;50.952;4.678;2024-02-23T14:24:51;11.50;99.90
24035;DHT22;12242;50.952;4.678;2024-02-23T14:27:31;11.10;99.90
24035;DHT22;12242;50.952;4.678;2024-02-23T14:30:05;10.80;99.90
24035;DHT22;12242;50.952;4.678;2024-02-23T14:32:39;10.80;99.90
24035;DHT22;12242;50.952;4.678;2024-02-23T14:35:31;10.90;99.90
24035;DHT22;12242;50.952;4.678;2024-02-23T14:38:20;11.10;99.90
24035;DHT22;12242;50.952;4.678;2024-02-23T14:41:24;11.10;99.90
24035;DHT22;12242;50.952;4.678;2024-02-23T14:44:00;11.00;99.90
24035;DHT22;12242;50.952;4.678;2024-02-23T14:46:39;10.90;99.90
24035;DHT22;12242;50.952;4.678;2024-02-23T14:49:11;10.90;99.90
24035;DHT22;12242;50.952;4.678;2024-02-23T14:51:52;11.20;99.90
24035;DHT22;12242;50.952;4.678;2024-02-23T14:54:25;11.30;99.90
24035;DHT22;12242;50.952;4.678;2024-02-23T14:57:12;11.30;99.90
24035;DHT22;12242;50.952;4.678;2024-02-23T15:00:00;11.10;99.90
24035;DHT22;12242;50.952;4.678;2024-02-23T15:02:31;11.00;99.90
24035;DHT22;12242;50.952;4.678;2024-02-23T15:05:01;10.80;99.90
24035;DHT22;12242;50.952;4.678;2024-02-23T15:07:35;10.70;99.90
24035;DHT22;12242;50.952;4.678;2024-02-23T15:10:05;10.70;99.90
24035;DHT22;12242;50.952;4.678;2024-02-23T15:12:36;10.70;99.90
24035;DHT22;12242;50.952;4.678;2024-02-23T15:15:04;10.80;99.90
24035;DHT22;12242;50.952;4.678;2024-02-23T15:17:34;10.90;99.90
24035;DHT22;12242;50.952;4.678;2024-02-23T15:20:02;11.00;99.90
24035;DHT22;12242;50.952;4.678;2024-02-23T15:22:30;11.00;99.90
24035;DHT22;12242;50.952;4.678;2024-02-23T15:24:59;10.80;99.90
24035;DHT22;12242;50.952;4.678;2024-02-23T15:27:27;10.70;99.90
24035;DHT22;12242;50.952;4.678;2024-02-23T15:29:55;10.40;99.90
24035;DHT22;12242;50.952;4.678;2024-02-23T15:32:25;10.30;99.90
24035;DHT22;12242;50.952;4.678;2024-02-23T15:34:53;10.10;99.90
24035;DHT22;12242;50.952;4.678;2024-02-23T15:37:20;10.00;99.90
24035;DHT22;12242;50.952;4.678;2024-02-23T15:39:49;10.10;99.90
24035;DHT22;12242;50.952;4.678;2024-02-23T15:42:17;10.00;99.90
24035;DHT22;12242;50.952;4.678;2024-02-23T15:44:48;9.90;99.90
24035;DHT22;12242;50.952;4.678;2024-02-23T15:47:15;10.00;99.90
24035;DHT22;12242;50.952;4.678;2024-02-23T15:49:47;9.80;99.90
24035;DHT22;12242;50.952;4.678;2024-02-23T15:52:35;9.70;99.90
24035;DHT22;12242;50.952;4.678;2024-02-23T15:55:09;9.50;99.90
24035;DHT22;12242;50.952;4.678;2024-02-23T15:57:39;9.40;99.90
24035;DHT22;12242;50.952;4.678;2024-02-23T16:00:08;9.40;99.90
24035;DHT22;12242;50.952;4.678;2024-02-23T16:02:38;9.40;99.90
24035;DHT22;12242;50.952;4.678;2024-02-23T16:05:06;9.30;99.90
24035;DHT22;12242;50.952;4.678;2024-02-23T16:07:39;9.30;99.90
24035;DHT22;12242;50.952;4.678;2024-02-23T16:10:09;9.10;99.90
24035;DHT22;12242;50.952;4.678;2024-02-23T16:12:41;8.90;99.90